createdAt,value
2022-11-25T00:01:07.708Z,8.70
2022-11-25T00:03:36.531Z,8.70
2022-11-25T00:06:23.768Z,8.70
2022-11-25T00:08:55.148Z,8.70
2022-11-25T00:11:23.396Z,8.70
2022-11-25T00:13:51.577Z,8.70
2022-11-25T00:16:23.098Z,8.70
2022-11-25T00:18:52.629Z,8.70
2022-11-25T00:21:22.772Z,8.70
2022-11-25T00:23:54.257Z,8.70
2022-11-25T00:26:22.766Z,8.70
2022-11-25T00:28:51.379Z,8.70
2022-11-25T00:31:22.418Z,8.70
2022-11-25T00:33:51.151Z,8.70
2022-11-25T00:36:22.599Z,8.70
2022-11-25T00:38:54.841Z,8.70
2022-11-25T00:41:40.729Z,8.70
2022-11-25T00:44:28.443Z,8.70
2022-11-25T00:46:57.793Z,8.80
2022-11-25T00:49:25.883Z,8.80
2022-11-25T00:51:53.876Z,8.80
2022-11-25T00:54:21.923Z,8.80
2022-11-25T00:56:49.968Z,8.80
2022-11-25T00:59:17.954Z,8.80
2022-11-25T01:01:45.983Z,8.80
2022-11-25T01:04:15.477Z,8.80
2022-11-25T01:06:43.617Z,8.80
2022-11-25T01:09:13.615Z,8.80
2022-11-25T01:11:41.979Z,8.80
2022-11-25T01:14:10.255Z,8.80
2022-11-25T01:16:38.350Z,8.80
2022-11-25T01:19:06.443Z,8.80
2022-11-25T01:21:36.412Z,8.80
2022-11-25T01:24:06.593Z,8.80
2022-11-25T01:26:35.438Z,8.80
2022-11-25T01:29:05.148Z,8.80
2022-11-25T01:31:35.161Z,8.80
2022-11-25T01:34:05.281Z,8.80
2022-11-25T01:36:33.496Z,8.80
2022-11-25T01:39:02.951Z,8.80
2022-11-25T01:41:32.371Z,8.80
2022-11-25T01:44:06.408Z,8.80
2022-11-25T01:46:44.735Z,8.80
2022-11-25T01:49:17.939Z,8.80
2022-11-25T01:51:49.927Z,8.80
2022-11-25T01:54:23.052Z,8.80
2022-11-25T01:56:53.924Z,8.80
2022-11-25T01:59:22.571Z,8.80
2022-11-25T02:01:51.192Z,8.80
2022-11-25T02:04:21.475Z,8.80
2022-11-25T02:06:54.082Z,8.80
2022-11-25T02:09:24.670Z,8.80
2022-11-25T02:11:53.522Z,8.80
2022-11-25T02:14:23.475Z,8.80
2022-11-25T02:16:51.493Z,8.80
2022-11-25T02:19:24.191Z,8.90
2022-11-25T02:21:57.346Z,8.90
2022-11-25T02:24:32.287Z,8.90
2022-11-25T02:27:01.652Z,8.90
2022-11-25T02:29:29.900Z,8.90
2022-11-25T02:31:57.808Z,8.90
2022-11-25T02:34:25.788Z,8.90
2022-11-25T02:36:54.477Z,8.90
2022-11-25T02:39:23.073Z,8.90
2022-11-25T02:41:55.119Z,8.90
2022-11-25T02:44:24.847Z,8.90
2022-11-25T02:46:52.736Z,8.80
2022-11-25T02:49:20.657Z,8.90
2022-11-25T02:51:49.042Z,8.90
2022-11-25T02:54:17.557Z,8.90
2022-11-25T02:56:45.750Z,8.90
2022-11-25T02:59:13.782Z,8.90
2022-11-25T03:01:43.098Z,8.90
2022-11-25T03:04:11.239Z,8.90
2022-11-25T03:06:39.330Z,8.90
2022-11-25T03:09:07.291Z,8.90
2022-11-25T03:11:52.816Z,8.90
2022-11-25T03:14:20.783Z,8.90
2022-11-25T03:16:50.305Z,8.80
2022-11-25T03:19:18.320Z,8.90
2022-11-25T03:21:46.182Z,8.80
2022-11-25T03:24:14.120Z,8.80
2022-11-25T03:26:42.061Z,8.80
2022-11-25T03:29:09.963Z,8.90
2022-11-25T03:31:37.961Z,8.80
2022-11-25T03:34:07.469Z,8.80
2022-11-25T03:36:35.450Z,8.80
2022-11-25T03:39:03.471Z,8.80
2022-11-25T03:41:31.344Z,8.80
2022-11-25T03:43:59.231Z,8.80
2022-11-25T03:46:27.257Z,8.80
2022-11-25T03:48:55.227Z,8.80
2022-11-25T03:51:24.547Z,8.80
2022-11-25T03:53:52.401Z,8.80
2022-11-25T03:56:20.300Z,8.80
2022-11-25T03:58:48.296Z,8.80
2022-11-25T04:01:16.304Z,8.80
2022-11-25T04:03:44.297Z,8.80
2022-11-25T04:06:12.312Z,8.80
2022-11-25T04:08:41.778Z,8.80
2022-11-25T04:11:09.736Z,8.80
2022-11-25T04:13:36.729Z,8.80
2022-11-25T04:16:04.783Z,8.80
2022-11-25T04:18:32.708Z,8.70
2022-11-25T04:21:00.629Z,8.70
2022-11-25T04:23:28.905Z,8.70
2022-11-25T04:25:58.216Z,8.70
2022-11-25T04:28:26.211Z,8.70
2022-11-25T04:30:54.163Z,8.70
2022-11-25T04:33:22.110Z,8.60
2022-11-25T04:35:50.035Z,8.60
2022-11-25T04:38:17.920Z,8.60
2022-11-25T04:40:45.894Z,8.60
2022-11-25T04:43:15.244Z,8.60
2022-11-25T04:46:06.731Z,8.50
2022-11-25T04:48:31.190Z,8.50
2022-11-25T04:50:59.113Z,8.50
2022-11-25T04:53:27.133Z,8.50
2022-11-25T04:55:55.047Z,8.50
2022-11-25T04:58:38.199Z,8.50
2022-11-25T05:01:06.245Z,8.50
2022-11-25T05:03:34.440Z,8.40
2022-11-25T05:06:07.324Z,8.40
2022-11-25T05:08:35.302Z,8.40
2022-11-25T05:11:03.663Z,8.40
2022-11-25T05:13:32.947Z,8.40
2022-11-25T05:16:01.068Z,8.40
2022-11-25T05:18:29.145Z,8.40
2022-11-25T05:21:01.359Z,8.30
2022-11-25T05:23:29.519Z,8.30
2022-11-25T05:26:00.472Z,8.40
2022-11-25T05:28:28.516Z,8.30
2022-11-25T05:30:58.516Z,8.30
2022-11-25T05:33:26.589Z,8.30
2022-11-25T05:35:59.386Z,8.30
2022-11-25T05:38:28.232Z,8.30
2022-11-25T05:41:01.996Z,8.20
2022-11-25T05:43:29.930Z,8.20
2022-11-25T05:45:59.458Z,8.20
2022-11-25T05:48:27.466Z,8.20
2022-11-25T05:50:55.415Z,8.20
2022-11-25T05:53:23.339Z,8.20
2022-11-25T05:55:56.188Z,8.20
2022-11-25T05:58:24.269Z,8.20
2022-11-25T06:00:52.340Z,8.20
2022-11-25T06:03:25.152Z,8.20
2022-11-25T06:05:53.500Z,8.20
2022-11-25T06:08:21.474Z,8.20
2022-11-25T06:10:49.575Z,8.10
2022-11-25T06:13:17.536Z,8.10
2022-11-25T06:15:46.679Z,8.10
2022-11-25T06:18:17.107Z,8.10
2022-11-25T06:20:46.565Z,8.10
2022-11-25T06:23:14.574Z,8.10
2022-11-25T06:25:42.487Z,8.10
2022-11-25T06:28:13.109Z,8.00
2022-11-25T06:30:41.522Z,8.00
2022-11-25T06:33:09.497Z,8.00
2022-11-25T06:35:37.819Z,8.00
2022-11-25T06:38:07.179Z,8.00
2022-11-25T06:40:35.646Z,8.00
2022-11-25T06:43:05.529Z,7.90
2022-11-25T06:45:33.978Z,7.90
2022-11-25T06:48:01.878Z,7.90
2022-11-25T06:50:29.803Z,7.90
2022-11-25T06:52:57.663Z,7.90
2022-11-25T06:55:26.923Z,7.90
2022-11-25T06:58:13.647Z,7.90
2022-11-25T07:00:42.826Z,7.80
2022-11-25T07:03:10.830Z,7.80
2022-11-25T07:05:38.792Z,7.80
2022-11-25T07:08:06.760Z,7.80
2022-11-25T07:10:36.776Z,7.80
2022-11-25T07:13:04.789Z,7.80
2022-11-25T07:15:34.981Z,7.70
2022-11-25T07:18:02.978Z,7.70
2022-11-25T07:20:35.109Z,7.70
2022-11-25T07:23:14.290Z,7.70
2022-11-25T07:25:43.571Z,7.70
2022-11-25T07:28:11.530Z,7.70
2022-11-25T07:31:22.168Z,7.70
2022-11-25T07:33:27.390Z,7.70
2022-11-25T07:35:55.390Z,7.60
2022-11-25T07:38:23.464Z,7.60
2022-11-25T07:40:52.692Z,7.60
2022-11-25T07:43:20.628Z,7.60
2022-11-25T07:45:48.585Z,7.60
2022-11-25T07:48:16.488Z,7.60
2022-11-25T07:50:44.398Z,7.60
2022-11-25T07:53:12.346Z,7.60
2022-11-25T07:55:40.260Z,7.60
2022-11-25T07:58:09.481Z,7.60
2022-11-25T08:00:37.391Z,7.60
2022-11-25T08:03:05.327Z,7.60
2022-11-25T08:05:34.496Z,7.50
2022-11-25T08:08:02.496Z,7.50
2022-11-25T08:10:30.636Z,7.50
2022-11-25T08:12:58.551Z,7.50
2022-11-25T08:15:28.211Z,7.50
2022-11-25T08:17:56.157Z,7.50
2022-11-25T08:20:24.060Z,7.50
2022-11-25T08:22:51.975Z,7.50
2022-11-25T08:25:19.922Z,7.50
2022-11-25T08:27:48.418Z,7.50
2022-11-25T08:30:16.812Z,7.50
2022-11-25T08:32:46.127Z,7.50
2022-11-25T08:35:14.085Z,7.60
2022-11-25T08:37:41.989Z,7.60
2022-11-25T08:40:11.623Z,7.60
2022-11-25T08:42:40.071Z,7.60
2022-11-25T08:45:09.662Z,7.60
2022-11-25T08:47:37.888Z,7.60
2022-11-25T08:50:09.862Z,7.60
2022-11-25T08:52:37.754Z,7.60
2022-11-25T08:55:06.625Z,7.60
2022-11-25T08:57:34.515Z,7.60
2022-11-25T09:00:02.460Z,7.60
2022-11-25T09:02:30.495Z,7.60
2022-11-25T09:04:58.535Z,7.60
2022-11-25T09:07:31.172Z,7.70
2022-11-25T09:10:00.370Z,7.70
2022-11-25T09:12:28.400Z,7.70
2022-11-25T09:14:56.332Z,7.70
2022-11-25T09:17:24.252Z,7.70
2022-11-25T09:19:56.685Z,7.80
2022-11-25T09:22:24.780Z,7.80
2022-11-25T09:24:54.099Z,7.80
2022-11-25T09:27:21.968Z,7.80
2022-11-25T09:29:49.880Z,7.80
2022-11-25T09:32:17.807Z,7.90
2022-11-25T09:34:45.813Z,7.90
2022-11-25T09:37:13.778Z,7.90
2022-11-25T09:39:42.038Z,7.90
2022-11-25T09:42:44.679Z,8.00
2022-11-25T09:45:36.792Z,8.00
2022-11-25T09:48:18.536Z,8.10
2022-11-25T09:50:59.121Z,8.10
2022-11-25T09:53:39.185Z,8.10
2022-11-25T09:56:15.712Z,8.20
2022-11-25T09:58:49.408Z,8.20
2022-11-25T10:01:22.366Z,8.30
2022-11-25T10:03:54.654Z,8.30
2022-11-25T10:06:25.788Z,8.40
2022-11-25T10:08:57.442Z,8.40
2022-11-25T10:11:36.004Z,8.40
2022-11-25T10:14:13.774Z,8.40
2022-11-25T10:16:51.770Z,8.50
2022-11-25T10:19:27.611Z,8.50
2022-11-25T10:21:55.466Z,8.60
2022-11-25T10:24:23.488Z,8.70
2022-11-25T10:26:58.552Z,8.70
2022-11-25T10:29:30.395Z,8.80
2022-11-25T10:32:11.758Z,8.80
2022-11-25T10:34:43.199Z,8.80
2022-11-25T10:37:18.213Z,8.80
2022-11-25T10:39:46.142Z,8.90
2022-11-25T10:42:23.036Z,9.00
2022-11-25T10:44:52.457Z,9.00
2022-11-25T10:47:36.567Z,9.00
2022-11-25T10:50:18.320Z,9.10
2022-11-25T10:52:52.700Z,9.10
2022-11-25T10:55:24.177Z,9.10
2022-11-25T10:57:52.188Z,9.20
2022-11-25T11:00:31.672Z,9.20
2022-11-25T11:03:01.131Z,9.30
2022-11-25T11:05:31.276Z,9.30
2022-11-25T11:08:20.917Z,9.30
2022-11-25T11:11:09.036Z,9.40
2022-11-25T11:13:36.990Z,9.40
2022-11-25T11:16:21.692Z,9.40
2022-11-25T11:18:51.021Z,9.50
2022-11-25T11:21:25.309Z,9.50
2022-11-25T11:23:55.739Z,9.60
2022-11-25T11:26:26.330Z,9.60
2022-11-25T11:29:09.764Z,9.60
2022-11-25T11:31:47.728Z,9.70
2022-11-25T11:34:42.737Z,9.80
2022-11-25T11:37:23.872Z,9.80
2022-11-25T11:40:04.190Z,9.90
2022-11-25T11:42:43.162Z,9.90
2022-11-25T11:45:23.458Z,10.00
2022-11-25T11:48:04.659Z,10.00
2022-11-25T11:50:35.097Z,10.00
2022-11-25T11:53:11.540Z,10.10
2022-11-25T11:56:26.805Z,10.10
2022-11-25T11:59:14.542Z,10.10
2022-11-25T12:01:54.860Z,10.10
2022-11-25T12:04:29.002Z,10.10
2022-11-25T12:07:03.403Z,10.10
2022-11-25T12:09:34.684Z,10.20
2022-11-25T12:12:06.602Z,10.20
2022-11-25T12:14:41.921Z,10.30
2022-11-25T12:17:18.183Z,10.30
2022-11-25T12:19:55.492Z,10.30
2022-11-25T12:22:27.767Z,10.30
2022-11-25T12:25:04.565Z,10.30
2022-11-25T12:27:37.492Z,10.30
2022-11-25T12:30:08.179Z,10.40
2022-11-25T12:32:48.068Z,10.40
2022-11-25T12:35:23.999Z,10.40
2022-11-25T12:37:57.539Z,10.40
2022-11-25T12:40:31.310Z,10.40
2022-11-25T12:43:12.040Z,10.50
2022-11-25T12:45:42.795Z,10.50
2022-11-25T12:48:13.684Z,10.50
2022-11-25T12:50:56.954Z,10.50
2022-11-25T12:53:34.059Z,10.60
2022-11-25T12:56:05.066Z,10.60
2022-11-25T12:58:50.870Z,10.60
2022-11-25T13:01:56.410Z,10.60
2022-11-25T13:04:58.046Z,10.60
2022-11-25T13:07:42.558Z,10.70
2022-11-25T13:10:41.656Z,10.70
2022-11-25T13:13:23.311Z,10.70
2022-11-25T13:15:55.189Z,10.80
2022-11-25T13:18:27.996Z,10.70
2022-11-25T13:20:56.737Z,10.80
2022-11-25T13:23:33.253Z,10.80
2022-11-25T13:26:38.642Z,10.90
2022-11-25T13:29:54.549Z,10.90
2022-11-25T13:32:43.052Z,11.00
2022-11-25T13:35:39.282Z,11.00
2022-11-25T13:38:38.005Z,11.10
2022-11-25T13:41:23.993Z,11.10
2022-11-25T13:44:01.999Z,11.10
2022-11-25T13:46:38.475Z,11.10
2022-11-25T13:49:07.654Z,11.20
2022-11-25T13:51:35.667Z,11.20
2022-11-25T13:54:07.701Z,11.20
2022-11-25T13:56:37.880Z,11.20
2022-11-25T13:59:37.789Z,11.20
2022-11-25T14:02:35.616Z,11.20
2022-11-25T14:05:14.193Z,11.20
2022-11-25T14:07:51.898Z,11.20
2022-11-25T14:10:44.959Z,11.20
2022-11-25T14:13:34.237Z,11.30
2022-11-25T14:16:13.494Z,11.30
2022-11-25T14:19:35.305Z,11.30
2022-11-25T14:22:06.938Z,11.30
2022-11-25T14:24:39.683Z,11.20
2022-11-25T14:27:17.289Z,11.20
2022-11-25T14:29:50.602Z,11.20
2022-11-25T14:32:22.523Z,11.20
2022-11-25T14:34:55.611Z,11.20
2022-11-25T14:37:29.184Z,11.20
2022-11-25T14:40:00.560Z,11.20
2022-11-25T14:42:36.121Z,11.20
2022-11-25T14:45:04.486Z,11.20
2022-11-25T14:47:37.550Z,11.20
2022-11-25T14:53:07.981Z,11.10
2022-11-25T14:55:37.841Z,11.10
2022-11-25T14:58:07.175Z,11.10
2022-11-25T15:00:35.212Z,11.10
2022-11-25T15:03:04.836Z,11.00
2022-11-25T15:05:35.891Z,11.00
2022-11-25T15:08:11.588Z,11.00
2022-11-25T15:10:45.928Z,11.00
2022-11-25T15:13:27.444Z,10.90
2022-11-25T15:15:56.716Z,10.90
2022-11-25T15:18:26.366Z,10.90
2022-11-25T15:20:59.063Z,10.80
2022-11-25T15:23:31.991Z,10.80
2022-11-25T15:26:01.164Z,10.80
2022-11-25T15:28:35.411Z,10.80
2022-11-25T15:31:08.897Z,10.70
2022-11-25T15:33:38.268Z,10.70
2022-11-25T15:36:09.151Z,10.60
2022-11-25T15:38:42.615Z,10.60
2022-11-25T15:41:21.271Z,10.50
2022-11-25T15:43:54.049Z,10.50
2022-11-25T15:46:23.169Z,10.50
2022-11-25T15:48:54.400Z,10.50
2022-11-25T15:51:36.385Z,10.40
2022-11-25T15:54:08.947Z,10.40
2022-11-25T15:56:41.076Z,10.40
2022-11-25T15:59:42.383Z,10.30
2022-11-25T16:02:40.790Z,10.30
2022-11-25T16:05:34.506Z,10.20
2022-11-25T16:08:21.545Z,10.20
2022-11-25T16:11:01.345Z,10.10
2022-11-25T16:13:35.023Z,10.10
2022-11-25T16:16:28.952Z,10.10
2022-11-25T16:19:12.549Z,10.00
2022-11-25T16:21:47.956Z,10.00
2022-11-25T16:24:37.841Z,9.90
2022-11-25T16:27:07.420Z,9.90
2022-11-25T16:29:38.326Z,9.80
2022-11-25T16:32:14.814Z,9.80
2022-11-25T16:34:44.832Z,9.70
2022-11-25T16:37:13.233Z,9.70
2022-11-25T16:39:41.239Z,9.70
2022-11-25T16:42:15.562Z,9.60
2022-11-25T16:44:49.075Z,9.60
2022-11-25T16:47:17.676Z,9.60
2022-11-25T16:49:47.488Z,9.50
2022-11-25T16:52:16.023Z,9.50
2022-11-25T16:54:44.069Z,9.40
2022-11-25T16:57:18.783Z,9.40
2022-11-25T16:59:48.231Z,9.30
2022-11-25T17:02:19.169Z,9.30
2022-11-25T17:04:49.639Z,9.30
2022-11-25T17:07:35.719Z,9.20
2022-11-25T17:10:04.421Z,9.20
2022-11-25T17:12:34.847Z,9.20
2022-11-25T17:15:04.667Z,9.20
2022-11-25T17:17:33.533Z,9.10
2022-11-25T17:20:02.926Z,9.10
2022-11-25T17:22:36.043Z,9.10
2022-11-25T17:25:07.374Z,9.10
2022-11-25T17:27:35.630Z,9.00
2022-11-25T17:30:06.548Z,9.00
2022-11-25T17:32:35.189Z,9.00
2022-11-25T17:35:04.882Z,9.00
2022-11-25T17:37:32.981Z,9.00
2022-11-25T17:40:12.243Z,8.90
2022-11-25T17:42:41.768Z,8.90
2022-11-25T17:45:14.238Z,8.90
2022-11-25T17:47:42.690Z,8.80
2022-11-25T17:50:20.985Z,8.80
2022-11-25T17:52:49.176Z,8.80
2022-11-25T17:55:19.678Z,8.80
2022-11-25T17:57:48.340Z,8.80
2022-11-25T18:00:18.962Z,8.80
2022-11-25T18:02:47.175Z,8.70
2022-11-25T18:05:16.774Z,8.70
2022-11-25T18:07:46.308Z,8.70
2022-11-25T18:10:15.244Z,8.70
2022-11-25T18:12:44.676Z,8.60
2022-11-25T18:15:17.411Z,8.60
2022-11-25T18:17:45.892Z,8.60
2022-11-25T18:20:18.928Z,8.60
2022-11-25T18:22:50.922Z,8.50
2022-11-25T18:25:22.699Z,8.50
2022-11-25T18:27:54.077Z,8.50
2022-11-25T18:30:25.425Z,8.50
2022-11-25T18:32:53.675Z,8.50
2022-11-25T18:35:23.508Z,8.40
2022-11-25T18:37:53.201Z,8.40
2022-11-25T18:40:21.346Z,8.40
2022-11-25T18:42:53.241Z,8.40
2022-11-25T18:45:24.037Z,8.30
2022-11-25T18:47:51.972Z,8.30
2022-11-25T18:50:22.581Z,8.30
2022-11-25T18:52:52.926Z,8.30
2022-11-25T18:55:23.036Z,8.30
2022-11-25T18:57:52.184Z,8.30
2022-11-25T19:00:38.021Z,8.20
2022-11-25T19:03:07.813Z,8.20
2022-11-25T19:05:35.750Z,8.20
2022-11-25T19:08:05.401Z,8.20
2022-11-25T19:10:37.904Z,8.20
2022-11-25T19:13:09.456Z,8.20
2022-11-25T19:15:37.530Z,8.10
2022-11-25T19:18:07.651Z,8.10
2022-11-25T19:20:35.601Z,8.10
2022-11-25T19:23:16.861Z,8.10
2022-11-25T19:25:45.421Z,8.10
2022-11-25T19:28:14.618Z,8.10
2022-11-25T19:30:43.238Z,8.00
2022-11-25T19:33:17.340Z,8.00
2022-11-25T19:35:45.269Z,8.00
2022-11-25T19:38:20.541Z,8.00
2022-11-25T19:40:49.206Z,8.00
2022-11-25T19:43:17.143Z,8.00
2022-11-25T19:45:45.429Z,7.90
2022-11-25T19:48:16.263Z,7.90
2022-11-25T19:50:45.786Z,7.90
2022-11-25T19:53:19.084Z,7.90
2022-11-25T19:55:48.004Z,7.90
2022-11-25T19:58:16.663Z,7.80
2022-11-25T20:00:47.305Z,7.80
2022-11-25T20:03:20.250Z,7.80
2022-11-25T20:05:48.865Z,7.80
2022-11-25T20:08:22.460Z,7.80
2022-11-25T20:10:50.670Z,7.80
2022-11-25T20:13:18.879Z,7.80
2022-11-25T20:15:47.646Z,7.70
2022-11-25T20:18:18.847Z,7.70
2022-11-25T20:20:48.591Z,7.70
2022-11-25T20:23:25.029Z,7.70
2022-11-25T20:25:52.989Z,7.70
2022-11-25T20:28:22.700Z,7.70
2022-11-25T20:30:51.426Z,7.70
2022-11-25T20:33:24.390Z,7.60
2022-11-25T20:35:56.601Z,7.60
2022-11-25T20:38:29.540Z,7.60
2022-11-25T20:41:00.036Z,7.50
2022-11-25T20:43:30.742Z,7.50
2022-11-25T20:46:00.809Z,7.50
2022-11-25T20:48:30.541Z,7.50
2022-11-25T20:51:01.243Z,7.50
2022-11-25T20:53:32.416Z,7.50
2022-11-25T20:56:00.863Z,7.40
2022-11-25T20:58:31.055Z,7.40
2022-11-25T21:01:00.290Z,7.40
2022-11-25T21:03:28.490Z,7.40
2022-11-25T21:05:58.015Z,7.40
2022-11-25T21:08:30.113Z,7.40
2022-11-25T21:11:00.179Z,7.30
2022-11-25T21:13:30.473Z,7.30
2022-11-25T21:15:58.782Z,7.30
2022-11-25T21:18:26.887Z,7.30
2022-11-25T21:20:57.532Z,7.30
2022-11-25T21:23:29.307Z,7.30
2022-11-25T21:26:04.784Z,7.20
2022-11-25T21:28:33.390Z,7.20
2022-11-25T21:31:01.370Z,7.20
2022-11-25T21:33:29.318Z,7.20
2022-11-25T21:35:57.242Z,7.20
2022-11-25T21:38:27.644Z,7.20
2022-11-25T21:40:58.378Z,7.20
2022-11-25T21:43:32.508Z,7.20
